Terminal Aerodrome Forecast
Issued by NWS Indianapolis, IN

Home | Current Version | Previous Version | Text Only | Print | Product List | Glossary On
Versions: 1 2 3 4 5 6 7 8 9 10 11 12 13 14 15 16 17 18 19 20 21 22 23 24 25
227
FTUS43 KIND 132320
TAFIND
TAF
KIND 132320Z 1400/1506 VRB06KT P6SM FEW050 BKN200
     FM140800 10005KT P6SM SCT050 OVC080
     FM141300 12010KT 2SM -SN BR OVC018
     FM141800 12014KT 1/2SM SN FZFG OVC007
     FM142300 14011KT 4SM -SHSN BR OVC009=

USA.gov is the U.S. government's official web portal to all federal, state and local government web resources and services.